createdAt,value
2019-04-04T00:00:43.065Z,8.82
2019-04-04T00:05:45.649Z,8.88
2019-04-04T00:10:49.074Z,8.86
2019-04-04T00:15:52.076Z,8.81
2019-04-04T00:20:55.724Z,8.77
2019-04-04T00:25:59.100Z,8.79
2019-04-04T00:31:02.729Z,8.81
2019-04-04T00:36:06.221Z,8.80
2019-04-04T00:41:09.227Z,8.86
2019-04-04T00:46:12.160Z,8.78
2019-04-04T00:51:14.503Z,8.72
2019-04-04T00:56:18.087Z,8.47
2019-04-04T01:01:21.216Z,8.34
2019-04-04T01:06:24.161Z,8.66
2019-04-04T01:11:27.786Z,8.86
2019-04-04T01:16:33.407Z,8.92
2019-04-04T01:21:35.545Z,8.96
2019-04-04T01:26:38.850Z,9.16
2019-04-04T01:31:44.079Z,9.09
2019-04-04T01:36:47.143Z,9.21
2019-04-04T01:41:50.425Z,9.30
2019-04-04T01:46:53.635Z,9.33
2019-04-04T01:51:57.884Z,9.31
2019-04-04T01:57:00.727Z,9.37
2019-04-04T02:02:03.816Z,9.40
2019-04-04T02:07:06.875Z,9.20
2019-04-04T02:12:10.078Z,9.10
2019-04-04T02:17:13.599Z,9.26
2019-04-04T02:22:16.501Z,9.34
2019-04-04T02:27:20.036Z,9.35
2019-04-04T02:32:26.076Z,9.22
2019-04-04T02:37:28.030Z,9.14
2019-04-04T02:42:31.192Z,9.24
2019-04-04T02:47:36.459Z,9.25
2019-04-04T02:52:39.641Z,9.15
2019-04-04T02:57:42.886Z,9.00
2019-04-04T03:02:45.784Z,9.10
2019-04-04T03:07:48.979Z,9.19
2019-04-04T03:12:51.484Z,9.22
2019-04-04T03:17:54.987Z,9.27
2019-04-04T03:23:00.589Z,9.27
2019-04-04T03:28:04.935Z,9.21
2019-04-04T03:33:08.489Z,9.22
2019-04-04T03:38:13.486Z,9.11
2019-04-04T03:43:16.837Z,9.14
2019-04-04T03:48:20.292Z,9.07
2019-04-04T03:53:24.088Z,8.89
2019-04-04T03:58:27.891Z,8.86
2019-04-04T04:03:31.075Z,8.93
2019-04-04T04:08:34.279Z,8.82
2019-04-04T04:13:37.577Z,8.52
2019-04-04T04:18:41.084Z,8.56
2019-04-04T04:23:44.705Z,8.56
2019-04-04T04:28:52.200Z,8.41
2019-04-04T04:33:53.140Z,8.43
2019-04-04T04:38:59.895Z,8.36
2019-04-04T04:44:05.099Z,8.27
2019-04-04T04:49:06.787Z,8.10
2019-04-04T04:54:09.710Z,8.21
2019-04-04T04:59:13.231Z,8.22
2019-04-04T05:04:17.552Z,8.27
2019-04-04T05:09:20.105Z,8.24
2019-04-04T05:14:23.368Z,8.23
2019-04-04T05:19:26.373Z,8.29
2019-04-04T05:24:29.894Z,8.33
2019-04-04T05:29:33.072Z,8.38
2019-04-04T05:34:36.395Z,8.34
2019-04-04T05:39:41.821Z,8.41
2019-04-04T05:44:45.206Z,8.35
2019-04-04T05:49:48.901Z,8.31
2019-04-04T05:54:52.492Z,8.49
2019-04-04T05:59:57.221Z,8.65
2019-04-04T06:05:00.510Z,8.76
2019-04-04T06:10:04.465Z,8.62
2019-04-04T06:15:07.608Z,8.62
2019-04-04T06:20:10.114Z,8.43
2019-04-04T06:25:13.038Z,8.22
2019-04-04T06:30:16.145Z,8.53
2019-04-04T06:35:19.647Z,8.65
2019-04-04T06:40:22.653Z,8.58
2019-04-04T06:45:25.526Z,8.72
2019-04-04T06:50:28.432Z,8.89
2019-04-04T06:55:31.459Z,8.88
2019-04-04T07:00:34.897Z,8.92
2019-04-04T07:05:38.931Z,9.01
2019-04-04T07:10:42.171Z,9.07
2019-04-04T07:15:46.961Z,8.76
2019-04-04T07:20:50.489Z,8.70
2019-04-04T07:25:56.486Z,8.69
2019-04-04T07:31:01.734Z,8.69
2019-04-04T07:36:05.226Z,8.52
2019-04-04T07:41:08.970Z,8.75
2019-04-04T07:46:16.847Z,8.85
2019-04-04T07:51:17.093Z,8.79
2019-04-04T07:56:20.424Z,8.67
2019-04-04T08:01:23.660Z,8.81
2019-04-04T08:06:26.966Z,8.82
2019-04-04T08:11:29.964Z,9.02
2019-04-04T08:16:33.271Z,8.99
2019-04-04T08:21:36.171Z,9.02
2019-04-04T08:26:39.079Z,9.29
2019-04-04T08:31:42.750Z,9.40
2019-04-04T08:36:46.305Z,9.32
2019-04-04T08:41:52.256Z,9.75
2019-04-04T08:46:55.790Z,9.91
2019-04-04T08:51:59.092Z,9.96
2019-04-04T08:57:02.108Z,10.20
2019-04-04T09:02:05.436Z,10.25
2019-04-04T09:07:08.929Z,10.46
2019-04-04T09:12:12.355Z,10.37
2019-04-04T09:17:15.751Z,10.59
2019-04-04T09:22:18.985Z,10.82
2019-04-04T09:27:22.018Z,11.00
2019-04-04T09:32:24.598Z,11.00
2019-04-04T09:37:28.462Z,11.11
2019-04-04T09:42:32.715Z,10.95
2019-04-04T09:47:36.014Z,10.72
2019-04-04T09:52:39.292Z,10.80
2019-04-04T09:57:42.262Z,10.54
2019-04-04T10:02:45.269Z,10.61
2019-04-04T10:07:48.839Z,10.77
2019-04-04T10:12:52.242Z,10.80
2019-04-04T10:17:55.541Z,10.95
2019-04-04T10:22:59.045Z,11.34
2019-04-04T10:28:02.359Z,11.56
2019-04-04T10:33:05.883Z,11.71
2019-04-04T10:38:09.085Z,11.65
2019-04-04T10:43:12.088Z,11.55
2019-04-04T10:48:15.306Z,11.55
2019-04-04T10:53:18.873Z,11.58
2019-04-04T10:58:22.415Z,11.56
2019-04-04T11:03:25.979Z,11.57
2019-04-04T11:08:29.569Z,11.61
2019-04-04T11:13:34.031Z,11.67
2019-04-04T11:18:37.064Z,11.67
2019-04-04T11:23:39.926Z,11.86
2019-04-04T11:28:43.480Z,11.99
2019-04-04T11:33:46.750Z,12.30
2019-04-04T11:38:49.579Z,12.39
2019-04-04T11:43:52.761Z,12.58
2019-04-04T11:48:55.996Z,12.46
2019-04-04T11:53:58.558Z,12.40
2019-04-04T11:59:01.784Z,12.24
2019-04-04T12:04:05.222Z,12.20
2019-04-04T12:09:08.448Z,12.36
2019-04-04T12:14:11.459Z,12.32
2019-04-04T12:19:14.728Z,12.44
2019-04-04T12:24:17.836Z,12.42
2019-04-04T12:29:21.070Z,12.36
2019-04-04T12:34:23.808Z,12.71
2019-04-04T12:39:27.097Z,12.87
2019-04-04T12:44:32.457Z,12.72
2019-04-04T12:49:35.578Z,12.81
2019-04-04T12:54:38.845Z,12.73
2019-04-04T12:59:42.024Z,12.79
2019-04-04T13:04:45.540Z,12.27
2019-04-04T13:09:49.221Z,12.66
2019-04-04T13:14:52.191Z,13.03
2019-04-04T13:19:55.095Z,12.78
2019-04-04T13:24:57.963Z,12.63
2019-04-04T13:30:01.200Z,12.92
2019-04-04T13:35:05.732Z,12.75
2019-04-04T13:40:09.265Z,13.02
2019-04-04T13:45:12.579Z,14.12
2019-04-04T13:50:19.673Z,14.52
2019-04-04T13:55:22.004Z,15.31
2019-04-04T14:00:25.513Z,16.40
2019-04-04T14:05:29.160Z,17.61
2019-04-04T14:10:32.427Z,17.57
2019-04-04T14:15:35.666Z,18.03
2019-04-04T14:20:39.048Z,18.49
2019-04-04T14:25:42.291Z,18.67
2019-04-04T14:30:45.904Z,19.02
2019-04-04T14:35:49.380Z,17.59
2019-04-04T14:40:52.294Z,17.04
2019-04-04T14:45:55.785Z,17.01
2019-04-04T14:50:58.943Z,17.77
2019-04-04T14:56:02.012Z,17.61
2019-04-04T15:01:04.979Z,18.42
2019-04-04T15:06:08.598Z,18.47
2019-04-04T15:11:23.546Z,18.74
2019-04-04T15:16:17.578Z,18.45
2019-04-04T15:21:20.924Z,18.19
2019-04-04T15:26:24.061Z,17.91
2019-04-04T15:31:26.957Z,18.13
2019-04-04T15:36:29.920Z,18.24
2019-04-04T15:41:37.103Z,18.07
2019-04-04T15:46:37.690Z,18.06
2019-04-04T15:51:40.907Z,17.96
2019-04-04T15:56:44.162Z,17.52
2019-04-04T16:01:47.431Z,17.10
2019-04-04T16:06:50.028Z,16.28
2019-04-04T16:11:53.573Z,15.87
2019-04-04T16:16:56.965Z,15.53
2019-04-04T16:22:00.276Z,15.45
2019-04-04T16:27:03.678Z,15.53
2019-04-04T16:32:06.999Z,15.50
2019-04-04T16:37:10.206Z,15.57
2019-04-04T16:42:13.441Z,15.40
2019-04-04T16:47:16.629Z,15.11
2019-04-04T16:52:19.504Z,14.90
2019-04-04T16:57:23.167Z,14.85
2019-04-04T17:02:27.554Z,14.71
2019-04-04T17:07:30.511Z,14.33
2019-04-04T17:12:33.839Z,14.06
2019-04-04T17:17:37.126Z,13.92
2019-04-04T17:22:40.339Z,13.56
2019-04-04T17:27:43.848Z,13.21
2019-04-04T17:32:48.872Z,12.95
2019-04-04T17:37:54.122Z,12.84
2019-04-04T17:42:58.838Z,12.72
2019-04-04T17:48:02.667Z,12.48
2019-04-04T17:53:06.983Z,12.30
2019-04-04T17:58:12.838Z,12.02
2019-04-04T18:03:16.416Z,11.94
2019-04-04T18:08:20.446Z,11.82
2019-04-04T18:13:24.300Z,11.79
2019-04-04T18:18:27.477Z,11.73
2019-04-04T18:23:33.606Z,11.66
2019-04-04T18:28:41.331Z,11.54
2019-04-04T18:33:47.291Z,11.52
2019-04-04T18:38:53.848Z,11.57
2019-04-04T18:43:56.889Z,11.43
2019-04-04T18:49:00.467Z,11.30
2019-04-04T18:54:09.675Z,11.28
2019-04-04T18:59:12.307Z,11.31
2019-04-04T19:04:16.241Z,11.20
2019-04-04T19:09:27.066Z,11.22
2019-04-04T19:14:30.904Z,11.17
2019-04-04T19:19:34.168Z,11.12
2019-04-04T19:24:58.550Z,10.88
2019-04-04T19:30:01.950Z,10.95
2019-04-04T19:35:08.060Z,10.84
2019-04-04T19:40:13.939Z,10.73
2019-04-04T19:45:17.080Z,10.49
2019-04-04T19:50:20.375Z,10.35
2019-04-04T19:55:23.446Z,10.44
2019-04-04T20:00:26.872Z,10.38
2019-04-04T20:05:31.521Z,10.35
2019-04-04T20:10:35.337Z,10.32
2019-04-04T20:15:46.099Z,10.27
2019-04-04T20:20:50.291Z,10.19
2019-04-04T20:25:53.647Z,10.18
2019-04-04T20:30:57.037Z,10.12
2019-04-04T20:36:00.404Z,10.09
2019-04-04T20:41:03.026Z,10.10
2019-04-04T20:46:06.799Z,9.94
2019-04-04T20:51:11.729Z,9.99
2019-04-04T20:56:15.029Z,9.96
2019-04-04T21:01:18.338Z,9.98
2019-04-04T21:06:21.403Z,9.81
2019-04-04T21:11:24.291Z,9.80
2019-04-04T21:16:27.781Z,9.65
2019-04-04T21:21:31.041Z,9.63
2019-04-04T21:26:34.393Z,9.59
2019-04-04T21:31:37.706Z,9.54
2019-04-04T21:36:41.021Z,9.60
2019-04-04T21:41:44.025Z,9.55
2019-04-04T21:46:47.553Z,9.53
2019-04-04T21:51:50.762Z,9.43
2019-04-04T21:56:54.279Z,9.47
2019-04-04T22:01:57.926Z,9.46
2019-04-04T22:07:01.221Z,9.32
2019-04-04T22:12:04.638Z,9.22
2019-04-04T22:17:07.240Z,9.08
2019-04-04T22:22:10.456Z,9.21
2019-04-04T22:27:14.081Z,9.23
2019-04-04T22:32:17.686Z,9.22
2019-04-04T22:37:20.378Z,9.23
2019-04-04T22:42:23.581Z,9.21
2019-04-04T22:47:26.900Z,9.20
2019-04-04T22:52:30.430Z,9.18
2019-04-04T22:57:33.922Z,9.19
2019-04-04T23:02:36.910Z,9.19
2019-04-04T23:07:40.564Z,9.30
2019-04-04T23:12:43.769Z,9.21
2019-04-04T23:17:47.437Z,9.05
2019-04-04T23:22:52.934Z,8.99
2019-04-04T23:27:55.560Z,9.13
2019-04-04T23:32:58.781Z,9.13
2019-04-04T23:38:02.069Z,9.21
2019-04-04T23:43:05.034Z,9.05
2019-04-04T23:48:08.067Z,9.12
2019-04-04T23:53:11.391Z,9.06
2019-04-04T23:58:14.708Z,8.97
